Time;durP1;ratioP1;P1;durP2;ratioP2;P2;SDS_P1;SDS_P2;PMS_P1;PMS_P2;Temp;Humidity;BMP_temperature;BMP_pressure;BME280_temperature;BME280_humidity;BME280_pressure;Samples;Min_cycle;Max_cycle;Signal;HPM_P1;HPM_P2
2022/03/11 00:02:00;;;;;;;8.77;6.10;;;;;;;0.64;31.85;101457.16;7739002;32;36965;-72
2022/03/11 00:06:31;;;;;;;10.65;6.97;;;;;;;0.39;32.33;101465.16;7739172;32;39362;-72
2022/03/11 00:10:47;;;;;;;12.43;7.15;;;;;;;0.59;31.92;101468.41;7738787;32;40043;-73
2022/03/11 00:15:06;;;;;;;13.60;7.43;;;;;;;0.22;32.63;101468.81;7739018;32;37906;-72
2022/03/11 00:19:22;;;;;;;11.55;7.32;;;;;;;0.59;32.04;101463.03;7739192;32;36136;-72
2022/03/11 00:23:39;;;;;;;11.25;6.85;;;;;;;0.49;32.32;101467.72;7739170;32;38991;-72
2022/03/11 00:27:59;;;;;;;11.10;6.43;;;;;;;0.52;32.39;101462.03;7738948;32;40769;-71
2022/03/11 00:32:15;;;;;;;11.12;6.72;;;;;;;0.38;32.64;101455.44;7738770;32;37889;-72
2022/03/11 00:36:32;;;;;;;10.02;6.93;;;;;;;0.27;32.71;101456.56;7738458;32;37272;-72
2022/03/11 00:40:48;;;;;;;13.70;6.97;;;;;;;0.40;32.36;101466.00;7738957;32;39229;-72
2022/03/11 00:45:05;;;;;;;9.48;5.85;;;;;;;0.50;32.11;101456.81;7738771;32;39860;-71
2022/03/11 00:49:21;;;;;;;10.48;6.30;;;;;;;0.29;32.53;101462.59;7738457;32;37832;-71
2022/03/11 00:53:37;;;;;;;12.02;6.80;;;;;;;0.10;32.94;101468.25;7738160;32;38079;-73
2022/03/11 00:57:53;;;;;;;9.13;6.43;;;;;;;-0.21;33.03;101458.91;7738880;32;39285;-71
2022/03/11 01:02:09;;;;;;;14.23;7.30;;;;;;;0.09;32.97;101461.22;7738583;32;39948;-71
2022/03/11 01:06:25;;;;;;;11.00;6.78;;;;;;;0.01;32.73;101455.81;7738331;32;37819;-73
2022/03/11 01:10:41;;;;;;;12.25;7.20;;;;;;;-0.37;33.22;101456.16;7738505;32;37163;-72
2022/03/11 01:14:57;;;;;;;11.20;6.35;;;;;;;-0.23;33.63;101450.19;7738313;32;39458;-72
2022/03/11 01:19:14;;;;;;;12.48;6.87;;;;;;;-0.37;33.81;101452.62;7738362;32;40853;-73
2022/03/11 01:23:30;;;;;;;10.68;6.93;;;;;;;-0.35;33.51;101448.78;7738303;32;37781;-73
2022/03/11 01:27:46;;;;;;;12.77;6.40;;;;;;;-0.11;32.93;101453.41;7738603;32;36779;-72
2022/03/11 01:32:02;;;;;;;11.32;6.82;;;;;;;-0.30;33.36;101453.66;7738409;32;39728;-71
2022/03/11 01:36:18;;;;;;;13.77;7.40;;;;;;;-0.29;33.20;101439.28;7737902;32;39875;-72
2022/03/11 01:40:34;;;;;;;12.00;6.65;;;;;;;-0.12;32.74;101446.41;7737921;32;37871;-72
2022/03/11 01:44:52;;;;;;;12.10;7.07;;;;;;;0.04;32.68;101444.78;7738215;32;37849;-73
2022/03/11 01:49:11;;;;;;;10.50;7.03;;;;;;;-0.04;32.58;101441.03;7738110;32;38385;-72
2022/03/11 01:53:27;;;;;;;11.35;6.62;;;;;;;-0.40;33.01;101429.66;7738115;32;38922;-71
2022/03/11 01:57:43;;;;;;;11.32;7.05;;;;;;;-0.36;32.73;101430.16;7737959;32;37814;-71
2022/03/11 02:01:59;;;;;;;12.43;7.03;;;;;;;-0.17;32.45;101427.28;7737121;32;38115;-71
2022/03/11 02:06:16;;;;;;;12.88;6.75;;;;;;;-0.06;32.45;101440.37;7737577;32;40223;-74
2022/03/11 02:10:32;;;;;;;11.00;6.57;;;;;;;-0.44;32.67;101434.50;7737285;32;40059;-73
2022/03/11 02:14:48;;;;;;;10.35;7.28;;;;;;;-0.27;32.41;101448.00;7737616;32;38685;-72
2022/03/11 02:19:05;;;;;;;11.93;7.15;;;;;;;-0.28;32.06;101446.31;7737661;32;37179;-72
2022/03/11 02:23:22;;;;;;;9.45;6.78;;;;;;;-0.32;32.27;101435.06;7737669;32;39427;-71
2022/03/11 02:27:39;;;;;;;9.18;6.53;;;;;;;-0.35;32.31;101440.75;7737574;32;40252;-72
2022/03/11 02:31:55;;;;;;;9.35;6.78;;;;;;;-0.43;32.61;101433.50;7737179;32;38056;-72
2022/03/11 02:36:11;;;;;;;11.20;6.85;;;;;;;-0.48;32.61;101435.81;7737060;32;37834;-71
2022/03/11 02:40:27;;;;;;;10.95;6.62;;;;;;;-0.58;32.64;101443.13;7737152;32;40173;-72
2022/03/11 02:44:44;;;;;;;9.75;6.47;;;;;;;-0.58;32.81;101440.44;7737014;32;40744;-72
2022/03/11 02:49:00;;;;;;;13.77;7.28;;;;;;;-0.51;32.73;101444.19;7736534;32;37883;-73
2022/03/11 02:53:16;;;;;;;11.15;6.12;;;;;;;-0.44;32.58;101437.19;7736887;32;37111;-73
2022/03/11 02:57:32;;;;;;;11.38;7.05;;;;;;;-0.88;33.12;101441.75;7736957;32;39353;-71
2022/03/11 03:01:48;;;;;;;12.10;6.97;;;;;;;-0.49;32.68;101449.38;7736713;32;39942;-71
2022/03/11 03:06:05;;;;;;;11.45;6.37;;;;;;;-0.40;32.65;101460.00;7736354;32;38061;-72
2022/03/11 03:10:21;;;;;;;9.20;6.20;;;;;;;-0.48;32.82;101459.94;7736400;32;37081;-72
2022/03/11 03:14:38;;;;;;;10.57;6.10;;;;;;;-0.69;33.43;101460.31;7738259;32;40148;-73
2022/03/11 03:18:54;;;;;;;11.95;6.70;;;;;;;-0.59;32.94;101444.13;7739886;32;39627;-74
2022/03/11 03:23:10;;;;;;;11.88;6.75;;;;;;;-1.07;33.45;101458.84;7739693;32;38433;-73
2022/03/11 03:27:26;;;;;;;12.07;6.87;;;;;;;-0.98;33.38;101465.97;7739829;32;37320;-72
2022/03/11 03:31:42;;;;;;;10.00;7.03;;;;;;;-0.88;33.54;101445.28;7739478;32;39306;-73
2022/03/11 03:35:58;;;;;;;9.88;6.80;;;;;;;-1.12;33.51;101426.34;7739308;32;40807;-72
2022/03/11 03:40:14;;;;;;;9.63;6.72;;;;;;;-1.58;33.95;101443.31;7739561;32;38736;-72
2022/03/11 03:44:31;;;;;;;9.90;6.43;;;;;;;-1.42;33.86;101449.81;7739484;32;38611;-72
2022/03/11 03:48:47;;;;;;;8.52;6.65;;;;;;;-1.14;33.66;101440.72;7739257;32;39388;-72
2022/03/11 03:53:03;;;;;;;8.70;6.50;;;;;;;-1.15;33.80;101438.19;7739554;32;39947;-71
2022/03/11 03:57:19;;;;;;;8.93;6.45;;;;;;;-1.17;33.72;101446.38;7739365;32;38057;-72
2022/03/11 04:01:43;;;;;;;12.07;6.93;;;;;;;-1.27;33.90;101448.31;7739340;32;37070;-72
2022/03/11 04:05:59;;;;;;;13.13;6.70;;;;;;;-1.37;33.88;101455.56;7739116;32;39510;-72
2022/03/11 04:10:18;;;;;;;8.80;6.60;;;;;;;-1.33;34.05;101473.84;7739268;32;40949;-72
2022/03/11 04:14:34;;;;;;;10.82;6.40;;;;;;;-1.14;34.19;101464.81;7739278;32;36968;-72
2022/03/11 04:18:50;;;;;;;16.30;7.07;;;;;;;-1.34;34.40;101461.44;7739029;32;36834;-73
2022/03/11 04:23:07;;;;;;;10.07;6.65;;;;;;;-1.41;34.34;101465.72;7739100;32;39993;-72
2022/03/11 04:27:23;;;;;;;11.65;6.57;;;;;;;-1.42;34.14;101481.94;7738566;32;40105;-72
2022/03/11 04:31:39;;;;;;;11.23;6.55;;;;;;;-1.18;34.19;101474.13;7738358;32;38617;-71
2022/03/11 04:35:56;;;;;;;10.48;6.60;;;;;;;-1.17;33.80;101473.16;7738629;32;37166;-72
2022/03/11 04:40:12;;;;;;;9.25;6.95;;;;;;;-1.45;34.60;101475.06;7738793;32;39024;-72
2022/03/11 04:44:28;;;;;;;12.13;7.15;;;;;;;-1.59;34.76;101483.59;7738822;32;39860;-71
2022/03/11 04:48:47;;;;;;;10.90;6.55;;;;;;;-2.02;35.46;101491.25;7739257;32;37942;-72
2022/03/11 04:53:03;;;;;;;9.20;6.70;;;;;;;-1.78;35.57;101481.88;7739231;32;37310;-72
2022/03/11 04:57:19;;;;;;;8.80;6.57;;;;;;;-1.72;36.15;101481.28;7738770;32;39298;-72
2022/03/11 05:01:35;;;;;;;10.20;6.78;;;;;;;-1.82;36.72;101489.34;7737560;32;40739;-72
2022/03/11 05:05:52;;;;;;;11.88;7.07;;;;;;;-1.70;35.53;101493.50;7737350;32;38221;-72
2022/03/11 05:10:10;;;;;;;14.30;7.45;;;;;;;-1.97;36.70;101491.66;7738227;32;36966;-73
2022/03/11 05:14:26;;;;;;;13.07;6.87;;;;;;;-1.96;37.24;101481.84;7738646;32;38998;-72
2022/03/11 05:18:42;;;;;;;11.60;6.55;;;;;;;-1.88;37.41;101479.25;7738472;32;40536;-73
2022/03/11 05:22:58;;;;;;;11.45;6.72;;;;;;;-1.85;37.10;101484.28;7738387;32;38378;-72
2022/03/11 05:27:14;;;;;;;12.00;7.22;;;;;;;-1.67;36.35;101497.72;7738466;32;37639;-73
2022/03/11 05:31:30;;;;;;;12.63;6.90;;;;;;;-1.44;35.72;101498.13;7738362;32;39286;-73
2022/03/11 05:35:46;;;;;;;11.32;6.93;;;;;;;-1.43;35.54;101497.16;7737159;32;40097;-72
2022/03/11 05:40:02;;;;;;;12.10;7.55;;;;;;;-1.35;35.19;101499.06;7738156;32;38115;-73
2022/03/11 05:44:19;;;;;;;14.02;7.20;;;;;;;-1.57;35.32;101497.66;7738340;32;37232;-71
2022/03/11 05:48:35;;;;;;;11.35;7.22;;;;;;;-1.65;34.48;101500.25;7738045;32;39279;-72
2022/03/11 05:52:55;;;;;;;11.63;6.85;;;;;;;-1.36;34.23;101511.59;7738097;32;39952;-72
2022/03/11 05:57:11;;;;;;;14.55;6.90;;;;;;;-1.49;35.11;101511.13;7738166;32;37606;-70
2022/03/11 06:01:27;;;;;;;12.45;7.22;;;;;;;-1.48;35.32;101525.31;7737986;32;37129;-71
2022/03/11 06:05:43;;;;;;;10.88;6.75;;;;;;;-1.39;34.80;101532.47;7737097;32;39370;-71
2022/03/11 06:10:00;;;;;;;11.98;6.53;;;;;;;-1.34;35.52;101524.84;7737768;32;39961;-72
2022/03/11 06:14:16;;;;;;;11.35;6.90;;;;;;;-1.35;35.37;101544.53;7737493;32;37629;-71
2022/03/11 06:18:32;;;;;;;9.82;6.35;;;;;;;-1.51;36.13;101543.38;7737638;32;36977;-72
2022/03/11 06:22:50;;;;;;;13.75;7.40;;;;;;;-1.18;35.97;101541.03;7738046;32;37531;-72
2022/03/11 06:27:06;;;;;;;14.35;7.30;;;;;;;-0.86;35.44;101541.50;7737480;32;40475;-72
2022/03/11 06:31:22;;;;;;;12.25;7.90;;;;;;;-1.13;36.38;101540.59;7737386;32;38428;-72
2022/03/11 06:35:38;;;;;;;11.32;7.22;;;;;;;-1.00;36.54;101543.75;7737162;32;37665;-72
2022/03/11 06:39:54;;;;;;;11.15;6.68;;;;;;;-0.69;37.35;101542.50;7737255;32;40211;-72
2022/03/11 06:44:10;;;;;;;12.45;7.60;;;;;;;-0.93;36.99;101540.44;7736809;32;40047;-72
2022/03/11 06:48:26;;;;;;;13.82;7.37;;;;;;;-0.65;34.62;101551.91;7736722;32;38650;-73
2022/03/11 06:52:43;;;;;;;10.48;6.55;;;;;;;-0.37;33.54;101543.75;7737089;32;37252;-71
2022/03/11 06:57:00;;;;;;;14.43;6.85;;;;;;;-0.12;31.76;101537.56;7736955;32;39335;-72
2022/03/11 07:01:18;;;;;;;12.13;6.78;;;;;;;0.06;31.72;101540.16;7736806;32;40724;-71
2022/03/11 07:05:34;;;;;;;13.32;6.87;;;;;;;-0.60;32.41;101554.97;7736507;32;38368;-73
2022/03/11 07:09:50;;;;;;;8.65;6.50;;;;;;;0.38;30.72;101544.00;7736762;32;37153;-72
2022/03/11 07:14:06;;;;;;;9.05;5.97;;;;;;;0.71;30.09;101549.47;7736468;32;40085;-72
2022/03/11 07:18:23;;;;;;;9.73;6.00;;;;;;;0.52;30.25;101555.97;7736237;32;40145;-72
2022/03/11 07:22:39;;;;;;;11.57;6.68;;;;;;;0.57;30.17;101550.94;7736085;32;38541;-71
2022/03/11 07:26:55;;;;;;;8.63;5.68;;;;;;;0.82;29.60;101540.25;7736107;32;37146;-72
2022/03/11 07:31:11;;;;;;;10.25;6.62;;;;;;;0.50;29.70;101541.84;7734801;32;40606;-73
2022/03/11 07:35:28;;;;;;;10.40;5.95;;;;;;;1.30;28.86;101552.06;7735109;32;41244;-72
2022/03/11 07:39:43;;;;;;;9.35;5.93;;;;;;;1.21;28.95;101534.25;7735398;32;37544;-72
2022/03/11 07:44:00;;;;;;;9.07;5.97;;;;;;;1.74;28.37;101540.94;7735437;32;38138;-72
2022/03/11 07:48:30;;;;;;;9.43;5.65;;;;;;;1.55;28.18;101546.66;7735489;32;39052;-74
2022/03/11 07:52:46;;;;;;;12.68;6.03;;;;;;;1.92;39.20;101538.03;7735396;32;40521;-69
2022/03/11 07:57:02;;;;;;;10.02;5.90;;;;;;;1.92;32.84;101535.34;7734573;32;38391;-72
2022/03/11 08:01:18;;;;;;;12.68;6.60;;;;;;;2.52;28.09;101539.34;7737927;32;37170;-72
2022/03/11 08:05:34;;;;;;;9.82;5.47;;;;;;;2.54;26.30;101542.69;7739164;32;39437;-73
2022/03/11 08:09:50;;;;;;;10.25;6.12;;;;;;;2.98;25.37;101533.16;7738885;32;40007;-72
2022/03/11 08:14:07;;;;;;;8.95;5.22;;;;;;;2.86;25.50;101537.28;7738954;32;37875;-72
2022/03/11 08:18:23;;;;;;;8.93;5.40;;;;;;;3.05;25.37;101538.69;7739163;32;37042;-72
2022/03/11 08:22:39;;;;;;;10.02;5.80;;;;;;;3.32;25.06;101535.44;7738989;32;39357;-72
2022/03/11 08:26:55;;;;;;;10.80;5.70;;;;;;;3.33;24.74;101528.22;7738778;32;39858;-71
2022/03/11 08:31:11;;;;;;;12.02;5.95;;;;;;;3.63;25.11;101525.56;7738632;32;37989;-72
2022/03/11 08:35:27;;;;;;;11.98;5.80;;;;;;;3.83;24.55;101531.25;7738191;32;37916;-72
2022/03/11 08:39:44;;;;;;;8.93;5.53;;;;;;;4.02;24.27;101530.72;7738303;32;38998;-72
2022/03/11 08:44:01;;;;;;;10.73;5.53;;;;;;;4.07;23.87;101520.22;7737929;32;39641;-72
2022/03/11 08:48:17;;;;;;;8.25;5.25;;;;;;;4.27;23.83;101516.94;7730035;32;254443;-70
2022/03/11 08:52:37;;;;;;;13.90;6.43;;;;;;;3.64;24.67;101513.75;7737655;32;36692;-73
2022/03/11 08:56:54;;;;;;;13.02;5.95;;;;;;;4.26;24.00;101504.44;7737018;32;40074;-71
2022/03/11 09:01:10;;;;;;;11.57;5.22;;;;;;;4.37;24.37;101501.28;7737071;32;40893;-68
2022/03/11 09:05:27;;;;;;;10.52;5.97;;;;;;;4.76;22.33;101502.78;7736712;32;37852;-72
2022/03/11 09:09:43;;;;;;;14.02;6.30;;;;;;;4.93;22.21;101497.13;7738141;32;37524;-73
2022/03/11 09:13:59;;;;;;;12.30;5.93;;;;;;;4.63;22.16;101481.03;7738363;32;39966;-71
2022/03/11 09:18:15;;;;;;;7.82;5.15;;;;;;;4.36;23.10;101491.50;7738241;32;39976;-71
2022/03/11 09:22:32;;;;;;;12.07;5.03;;;;;;;4.07;23.69;101485.13;7736871;32;38555;-71
2022/03/11 09:26:49;;;;;;;12.10;5.30;;;;;;;4.32;22.11;101482.09;7735155;32;37863;-72
2022/03/11 09:31:09;;;;;;;22.52;6.30;;;;;;;5.44;21.58;101467.19;7737714;32;40239;-73
2022/03/11 09:35:28;;;;;;;10.02;4.75;;;;;;;5.97;22.23;101456.75;7736343;32;40066;-72
2022/03/11 09:39:45;;;;;;;9.27;4.20;;;;;;;6.77;20.72;101458.88;7737787;32;38075;-70
2022/03/11 09:44:02;;;;;;;7.28;4.32;;;;;;;6.57;19.96;101458.81;7737552;32;37063;-72
2022/03/11 09:48:19;;;;;;;11.00;4.90;;;;;;;6.52;19.73;101453.19;7737291;32;39821;-71
2022/03/11 09:52:35;;;;;;;12.60;5.00;;;;;;;6.36;19.92;101457.09;7737467;32;41191;-71
2022/03/11 09:56:55;;;;;;;8.82;5.25;;;;;;;7.25;18.93;101455.19;7737796;32;37961;-71
2022/03/11 10:01:11;;;;;;;8.80;4.85;;;;;;;6.71;18.89;101448.84;7736650;32;37076;-71
2022/03/11 10:05:47;;;;;;;7.72;4.55;;;;;;;7.79;18.85;101447.78;7737887;32;39390;-73
2022/03/11 10:10:32;;;;;;;7.00;4.12;;;;;;;7.77;17.97;101450.72;7710962;32;39909;-72
2022/03/11 10:15:02;;;;;;;9.30;4.30;;;;;;;8.41;17.66;101449.00;7710500;32;38702;-72
2022/03/11 10:19:19;;;;;;;11.18;4.60;;;;;;;8.34;17.02;101447.37;7710962;32;37889;-72
2022/03/11 10:23:49;;;;;;;11.52;5.00;;;;;;;8.39;17.48;101451.13;7710106;32;39616;-72
2022/03/11 10:28:09;;;;;;;9.88;4.50;;;;;;;8.32;17.48;101435.91;7710697;32;39623;-72
2022/03/11 10:32:25;;;;;;;9.57;4.30;;;;;;;8.62;17.39;101434.31;7719841;32;38008;-72
2022/03/11 10:36:57;;;;;;;8.93;4.87;;;;;;;8.99;16.19;101433.63;7724728;32;38119;-72
2022/03/11 10:41:16;;;;;;;20.75;4.90;;;;;;;9.66;16.24;101417.53;7737454;32;39357;-71
2022/03/11 10:45:44;;;;;;;9.77;4.12;;;;;;;9.71;15.39;101417.69;7735505;32;39872;-72
2022/03/11 10:50:11;;;;;;;11.43;4.40;;;;;;;9.31;15.41;101400.91;7735557;32;37915;-71
2022/03/11 10:54:29;;;;;;;9.07;4.40;;;;;;;9.87;15.99;101404.53;7735393;32;37263;-71
2022/03/11 10:58:45;;;;;;;7.45;4.10;;;;;;;9.92;15.98;101389.16;7736744;32;39265;-72
2022/03/11 11:03:05;;;;;;;10.70;4.07;;;;;;;10.94;14.61;101383.97;7736193;32;40846;-71
2022/03/11 11:07:21;;;;;;;8.13;4.10;;;;;;;10.76;14.18;101382.97;7736192;32;38059;-72
2022/03/11 11:11:38;;;;;;;10.10;3.92;;;;;;;11.06;13.83;101382.09;7734789;32;37036;-73
2022/03/11 11:15:58;;;;;;;10.38;4.20;;;;;;;11.04;13.33;101370.56;7735325;32;39460;-71
2022/03/11 11:20:37;;;;;;;5.53;3.55;;;;;;;10.53;13.36;101373.66;7736235;32;39993;-71
2022/03/11 11:24:59;;;;;;;7.00;3.95;;;;;;;11.19;13.65;101356.44;7736169;32;38028;-71
2022/03/11 11:29:21;;;;;;;8.30;3.92;;;;;;;11.98;13.11;101355.97;7735834;32;37086;-71
2022/03/11 11:33:37;;;;;;;11.40;3.75;;;;;;;11.79;12.75;101347.09;7735795;32;40218;-72
2022/03/11 11:37:54;;;;;;;8.48;3.60;;;;;;;12.41;12.39;101343.66;7739487;32;40745;-71
2022/03/11 11:42:18;;;;;;;7.07;3.80;;;;;;;12.81;12.65;101336.41;7739473;32;37936;-73
2022/03/11 11:46:37;;;;;;;6.15;3.33;;;;;;;12.27;11.37;101331.38;7738225;32;37839;-72
2022/03/11 11:50:53;;;;;;;6.82;3.20;;;;;;;12.82;12.62;101324.38;7739520;32;40799;-72
2022/03/11 11:55:17;;;;;;;6.97;3.90;;;;;;;13.17;11.33;101315.06;7739335;32;40798;-72
2022/03/11 11:59:41;;;;;;;7.93;3.87;;;;;;;12.26;11.31;101322.31;7739325;32;38047;-72
2022/03/11 12:03:57;;;;;;;7.78;3.83;;;;;;;12.13;12.11;101319.91;7738938;32;37076;-71
2022/03/11 12:08:46;;;;;;;6.87;3.60;;;;;;;11.58;12.49;101319.34;7738099;32;40180;-71
2022/03/11 12:13:04;;;;;;;7.07;3.70;;;;;;;11.24;12.06;101319.16;7739191;32;40795;-73
2022/03/11 12:17:40;;;;;;;7.37;3.97;;;;;;;11.11;12.23;101302.19;7739123;32;37272;-73
2022/03/11 12:21:56;;;;;;;5.97;3.85;;;;;;;11.81;12.53;101293.03;7738942;32;38071;-73
2022/03/11 12:26:14;;;;;;;7.43;3.85;;;;;;;11.88;12.40;101290.97;7738949;32;40139;-72
2022/03/11 12:30:43;;;;;;;4.55;3.17;;;;;;;11.99;11.49;101295.59;7738962;32;39956;-74
2022/03/11 12:34:59;;;;;;;8.32;3.15;;;;;;;12.28;11.76;101276.47;7738615;32;38726;-74
2022/03/11 12:39:17;;;;;;;6.18;3.25;;;;;;;12.70;10.98;101275.22;7737696;32;37841;-72
2022/03/11 12:43:33;;;;;;;6.40;3.47;;;;;;;13.54;10.67;101263.28;7737811;32;39254;-72
2022/03/11 12:47:50;;;;;;;6.65;3.40;;;;;;;13.92;9.66;101261.50;7738275;32;40483;-73
2022/03/11 12:52:19;;;;;;;6.10;3.28;;;;;;;14.34;10.01;101251.75;7738720;32;37578;-73
2022/03/11 12:56:37;;;;;;;5.37;2.87;;;;;;;14.55;9.33;101241.75;7737888;32;36600;-73
2022/03/11 13:00:54;;;;;;;7.68;2.97;;;;;;;14.11;10.01;101251.00;7718451;32;40021;-73
2022/03/11 13:05:31;;;;;;;6.80;3.20;;;;;;;15.32;9.27;101240.31;7732533;32;40933;-73
2022/03/11 13:09:48;;;;;;;5.75;3.08;;;;;;;13.00;9.92;101239.25;7738260;32;37838;-74
2022/03/11 13:14:04;;;;;;;7.85;3.60;;;;;;;12.12;10.58;101258.94;7738658;32;37121;-73
2022/03/11 13:18:26;;;;;;;7.62;4.15;;;;;;;12.47;10.97;101246.09;7738626;32;39358;-71
2022/03/11 13:22:50;;;;;;;5.85;3.03;;;;;;;12.46;10.75;101241.72;7737958;32;38947;-74
2022/03/11 13:27:09;;;;;;;6.50;2.78;;;;;;;12.45;10.90;101251.00;7737282;32;37584;-73
2022/03/11 13:31:26;;;;;;;7.30;2.97;;;;;;;13.18;9.96;101221.69;7737066;32;38023;-72
2022/03/11 13:35:43;;;;;;;5.25;2.87;;;;;;;13.82;9.26;101228.50;7736896;32;39446;-73
2022/03/11 13:40:10;;;;;;;5.75;2.97;;;;;;;14.48;8.87;101228.25;7738360;32;40021;-72
2022/03/11 13:44:41;;;;;;;7.72;2.67;;;;;;;14.57;8.77;101223.94;7738153;32;38311;-73
2022/03/11 13:48:59;;;;;;;4.62;2.50;;;;;;;15.24;8.22;101218.03;7738070;32;37072;-74
2022/03/11 13:53:26;;;;;;;6.45;2.50;;;;;;;15.31;7.84;101216.66;7738019;32;39320;-73
2022/03/11 13:57:43;;;;;;;5.03;2.40;;;;;;;15.30;8.25;101206.78;7737195;32;40729;-73
2022/03/11 14:02:10;;;;;;;5.95;2.45;;;;;;;15.58;7.67;101205.50;7736545;32;38760;-74
2022/03/11 14:06:31;;;;;;;4.47;2.37;;;;;;;15.50;8.16;101205.19;7738135;32;36048;-73
2022/03/11 14:10:48;;;;;;;3.53;2.25;;;;;;;16.04;8.09;101196.53;7738012;32;38630;-74
2022/03/11 14:15:09;;;;;;;6.32;2.25;;;;;;;16.28;7.17;101201.47;7737920;32;39793;-74
2022/03/11 14:19:25;;;;;;;6.07;2.95;;;;;;;16.49;7.10;101186.59;7737486;32;37872;-73
2022/03/11 14:23:41;;;;;;;4.78;2.22;;;;;;;15.44;7.73;101189.81;7737654;32;37834;-74
2022/03/11 14:27:58;;;;;;;5.45;2.17;;;;;;;16.22;6.53;101177.81;7737793;32;39454;-74
2022/03/11 14:32:14;;;;;;;8.07;2.80;;;;;;;15.79;6.76;101180.00;7737054;32;40576;-74
2022/03/11 14:36:30;;;;;;;6.90;2.42;;;;;;;15.96;6.47;101178.63;7737160;32;37498;-75
2022/03/11 14:40:46;;;;;;;5.75;2.47;;;;;;;15.85;7.11;101173.41;7736828;32;37121;-74
2022/03/11 14:45:06;;;;;;;7.18;2.45;;;;;;;16.13;6.84;101174.81;7726054;32;39503;-74
2022/03/11 14:49:22;;;;;;;3.53;2.20;;;;;;;16.29;7.04;101161.84;7722074;32;40461;-74
2022/03/11 14:53:38;;;;;;;3.55;2.12;;;;;;;16.22;6.04;101150.31;7735658;32;38430;-74
2022/03/11 14:57:54;;;;;;;2.95;2.05;;;;;;;16.20;6.20;101149.78;7735858;32;37243;-74
2022/03/11 15:02:11;;;;;;;4.90;2.25;;;;;;;15.78;6.04;101148.94;7735162;32;40029;-74
2022/03/11 15:06:28;;;;;;;4.00;2.20;;;;;;;16.13;5.73;101148.09;7734764;32;40032;-73
2022/03/11 15:10:44;;;;;;;4.95;2.00;;;;;;;16.11;5.93;101147.56;7737774;32;38320;-74
2022/03/11 15:15:00;;;;;;;3.22;2.08;;;;;;;15.98;5.85;101145.34;7737854;32;37609;-74
2022/03/11 15:19:16;;;;;;;3.50;2.10;;;;;;;15.67;6.16;101148.06;7737214;32;39133;-74
2022/03/11 15:23:33;;;;;;;5.00;2.47;;;;;;;16.19;6.11;101145.34;7738769;32;39604;-74
2022/03/11 15:27:49;;;;;;;8.10;2.70;;;;;;;15.74;6.46;101151.34;7737039;32;38449;-73
2022/03/11 15:32:05;;;;;;;4.55;2.58;;;;;;;15.69;6.00;101153.28;7737651;32;36961;-74
2022/03/11 15:36:21;;;;;;;4.35;2.22;;;;;;;15.35;5.81;101146.34;7738508;32;39388;-74
2022/03/11 15:40:38;;;;;;;4.22;2.58;;;;;;;14.91;6.22;101141.25;7739598;32;40033;-73
2022/03/11 15:44:54;;;;;;;5.72;2.22;;;;;;;14.53;6.46;101134.97;7739131;32;38468;-72
2022/03/11 15:49:10;;;;;;;5.50;2.47;;;;;;;14.29;6.67;101142.78;7738956;32;37196;-74
2022/03/11 15:53:26;;;;;;;5.30;2.85;;;;;;;14.03;6.91;101150.81;7738072;32;39870;-73
2022/03/11 15:57:43;;;;;;;6.28;2.42;;;;;;;13.96;6.95;101144.72;7737355;32;40609;-73
2022/03/11 16:01:59;;;;;;;4.40;2.45;;;;;;;13.30;6.85;101147.62;7738677;32;38597;-73
2022/03/11 16:06:15;;;;;;;5.28;2.80;;;;;;;13.96;6.62;101138.44;7737459;32;37102;-73
2022/03/11 16:10:32;;;;;;;5.55;2.87;;;;;;;13.89;6.55;101139.47;7738250;32;39335;-74
2022/03/11 16:14:47;;;;;;;4.37;2.67;;;;;;;13.00;7.34;101151.66;7737898;32;40745;-74
2022/03/11 16:19:03;;;;;;;4.82;2.40;;;;;;;12.74;7.96;101148.56;7738546;32;39009;-75
2022/03/11 16:23:19;;;;;;;6.30;2.70;;;;;;;13.36;7.16;101138.41;7737790;32;38472;-75
2022/03/11 16:27:37;;;;;;;8.90;2.72;;;;;;;13.51;6.92;101138.56;7737964;32;39095;-76
2022/03/11 16:32:03;;;;;;;5.80;2.92;;;;;;;13.97;6.73;101137.31;7739066;32;40843;-75
2022/03/11 16:36:28;;;;;;;6.00;2.92;;;;;;;14.22;6.46;101134.78;7738610;32;37904;-76
2022/03/11 16:40:45;;;;;;;5.10;2.58;;;;;;;13.51;7.04;101144.03;7738208;32;37245;-76
2022/03/11 16:45:01;;;;;;;6.68;3.00;;;;;;;12.43;8.03;101149.25;7738518;32;40068;-74
2022/03/11 16:49:18;;;;;;;16.00;3.33;;;;;;;11.71;9.08;101156.22;7737089;32;39466;-73
2022/03/11 16:53:34;;;;;;;6.50;2.83;;;;;;;10.92;11.84;101163.19;7738683;32;37508;-75
2022/03/11 16:57:51;;;;;;;5.65;2.67;;;;;;;10.38;10.68;101159.78;7738747;32;37594;-74
2022/03/11 17:02:07;;;;;;;25.45;4.32;;;;;;;9.61;11.28;101164.16;7738417;32;39367;-73
2022/03/11 17:06:23;;;;;;;5.18;2.80;;;;;;;8.86;11.86;101164.50;7738147;32;39981;-73
2022/03/11 17:10:41;;;;;;;10.23;3.83;;;;;;;8.68;11.79;101162.59;7738507;32;37880;-73
2022/03/11 17:14:57;;;;;;;16.17;4.25;;;;;;;8.27;12.14;101165.66;7738371;32;37167;-74
2022/03/11 17:19:13;;;;;;;7.12;3.00;;;;;;;7.92;12.52;101178.06;7738237;32;40050;-73
2022/03/11 17:23:29;;;;;;;11.50;3.37;;;;;;;7.23;13.19;101177.88;7738254;32;40030;-73
2022/03/11 17:27:45;;;;;;;7.72;2.90;;;;;;;6.84;13.74;101182.37;7738211;32;37939;-74
2022/03/11 17:32:04;;;;;;;11.32;3.30;;;;;;;6.63;13.94;101181.59;7735985;32;37131;-73
2022/03/11 17:36:21;;;;;;;4.57;3.08;;;;;;;6.56;13.93;101183.50;7738099;32;38369;-74
2022/03/11 17:40:37;;;;;;;5.45;3.22;;;;;;;6.23;13.57;101191.62;7737734;32;39907;-72
2022/03/11 17:44:53;;;;;;;18.83;4.32;;;;;;;6.16;13.73;101197.06;7736807;32;38620;-72
2022/03/11 17:49:10;;;;;;;5.68;3.47;;;;;;;6.04;14.38;101199.56;7736872;32;37437;-73
2022/03/11 17:53:29;;;;;;;7.20;3.62;;;;;;;5.75;14.42;101203.44;7733961;32;37943;-74
2022/03/11 17:57:46;;;;;;;6.80;3.42;;;;;;;5.63;14.86;101206.75;7736831;32;40006;-72
2022/03/11 18:02:03;;;;;;;9.07;3.70;;;;;;;5.58;14.74;101205.69;7736381;32;38505;-74
2022/03/11 18:06:20;;;;;;;8.00;4.18;;;;;;;5.29;14.99;101212.25;7736797;32;37928;-75
2022/03/11 18:10:36;;;;;;;15.98;6.62;;;;;;;5.24;14.05;101210.16;7736573;32;39032;-75
2022/03/11 18:14:52;;;;;;;26.45;8.95;;;;;;;5.02;14.15;101220.25;7736550;32;40674;-73
2022/03/11 18:19:08;;;;;;;22.20;8.80;;;;;;;4.91;15.22;101213.53;7735496;32;38724;-72
2022/03/11 18:23:24;;;;;;;20.85;8.80;;;;;;;4.85;15.78;101217.88;7737726;32;38070;-72
2022/03/11 18:27:41;;;;;;;16.12;7.47;;;;;;;4.77;16.22;101218.03;7736615;32;40199;-72
2022/03/11 18:31:57;;;;;;;20.33;8.45;;;;;;;4.73;17.21;101218.62;7735994;32;40656;-72
2022/03/11 18:36:13;;;;;;;19.27;9.70;;;;;;;4.31;18.73;101221.22;7735718;32;37806;-72
2022/03/11 18:40:41;;;;;;;19.40;9.50;;;;;;;4.27;19.69;101230.75;7728388;32;37177;-73
2022/03/11 18:44:57;;;;;;;21.12;6.37;;;;;;;4.16;19.99;101239.38;7735446;32;39656;-73
2022/03/11 18:49:14;;;;;;;8.55;5.20;;;;;;;3.99;18.45;101238.81;7735233;32;39688;-73
2022/03/11 18:53:30;;;;;;;9.07;5.35;;;;;;;3.78;17.45;101247.72;7735700;32;36056;-73
2022/03/11 18:57:46;;;;;;;14.95;6.32;;;;;;;3.73;17.01;101254.53;7735908;32;37312;-75
2022/03/11 19:02:03;;;;;;;12.27;5.90;;;;;;;3.32;17.00;101267.72;7733895;32;40073;-73
2022/03/11 19:06:19;;;;;;;12.13;5.70;;;;;;;3.69;17.22;101261.34;7735217;32;40893;-74
2022/03/11 19:10:36;;;;;;;9.00;5.20;;;;;;;3.28;18.44;101272.66;7735234;32;38574;-73
2022/03/11 19:14:52;;;;;;;8.32;4.90;;;;;;;3.38;18.48;101269.66;7735354;32;37289;-74
2022/03/11 19:19:10;;;;;;;9.80;5.30;;;;;;;3.03;18.46;101277.50;7735452;32;39302;-73
2022/03/11 19:23:26;;;;;;;16.05;5.07;;;;;;;3.30;18.56;101277.87;7735236;32;40585;-74
2022/03/11 19:27:42;;;;;;;10.90;5.53;;;;;;;2.88;18.84;101280.19;7732912;32;37522;-73
2022/03/11 19:32:00;;;;;;;8.52;4.45;;;;;;;2.90;18.65;101282.69;7734793;32;36830;-73
2022/03/11 19:36:18;;;;;;;8.05;4.80;;;;;;;2.69;19.05;101288.78;7732477;32;38303;-73
2022/03/11 19:40:35;;;;;;;8.60;4.97;;;;;;;2.60;19.29;101294.28;7734444;32;39892;-73
2022/03/11 19:44:52;;;;;;;9.43;4.70;;;;;;;2.68;18.98;101292.53;7734207;32;39196;-74
2022/03/11 19:49:10;;;;;;;9.93;4.93;;;;;;;2.76;18.95;101304.06;7734495;32;36836;-73
2022/03/11 19:53:28;;;;;;;9.05;5.18;;;;;;;2.58;18.93;101307.06;7734147;32;39836;-75
2022/03/11 19:57:45;;;;;;;9.55;5.32;;;;;;;2.48;19.06;101314.56;7734427;32;39884;-74
2022/03/11 20:02:01;;;;;;;8.77;5.65;;;;;;;2.45;19.38;101314.94;7737907;32;38635;-74